createdAt,value
2019-05-16T00:02:18.603Z,1.70
2019-05-16T00:04:48.538Z,1.90
2019-05-16T00:07:19.135Z,2.00
2019-05-16T00:09:49.288Z,4.67
2019-05-16T00:12:19.114Z,2.00
2019-05-16T00:14:49.463Z,1.50
2019-05-16T00:17:20.079Z,1.80
2019-05-16T00:19:51.142Z,1.73
2019-05-16T00:22:21.779Z,1.60
2019-05-16T00:24:52.197Z,2.10
2019-05-16T00:27:22.327Z,1.90
2019-05-16T00:29:52.703Z,2.00
2019-05-16T00:32:22.789Z,1.80
2019-05-16T00:34:53.395Z,1.90
2019-05-16T00:37:23.270Z,1.93
2019-05-16T00:39:53.117Z,1.87
2019-05-16T00:42:23.232Z,2.13
2019-05-16T00:44:53.049Z,1.97
2019-05-16T00:47:22.966Z,2.23
2019-05-16T00:49:53.080Z,1.77
2019-05-16T00:52:22.918Z,2.23
2019-05-16T00:54:53.521Z,2.00
2019-05-16T00:57:23.750Z,2.10
2019-05-16T00:59:53.946Z,2.00
2019-05-16T01:02:24.777Z,2.40
2019-05-16T01:05:14.572Z,2.00
2019-05-16T01:07:45.430Z,1.57
2019-05-16T01:10:15.267Z,2.30
2019-05-16T01:12:45.378Z,2.30
2019-05-16T01:15:15.729Z,2.00
2019-05-16T01:17:48.170Z,2.00
2019-05-16T01:20:19.245Z,1.90
2019-05-16T01:22:49.582Z,1.93
2019-05-16T01:25:19.691Z,1.60
2019-05-16T01:27:49.630Z,2.20
2019-05-16T01:30:19.580Z,1.40
2019-05-16T01:32:49.477Z,2.17
2019-05-16T01:35:19.310Z,1.80
2019-05-16T01:37:49.160Z,2.07
2019-05-16T01:40:38.714Z,2.13
2019-05-16T01:43:08.717Z,1.80
2019-05-16T01:45:38.638Z,2.30
2019-05-16T01:48:08.474Z,2.10
2019-05-16T01:50:38.877Z,2.07
2019-05-16T01:53:08.847Z,1.80
2019-05-16T01:55:40.762Z,2.30
2019-05-16T01:58:10.580Z,2.13
2019-05-16T02:00:52.532Z,1.80
2019-05-16T02:03:12.957Z,1.60
2019-05-16T02:05:42.751Z,2.50
2019-05-16T02:08:12.583Z,2.00
2019-05-16T02:10:42.591Z,2.00
2019-05-16T02:13:12.336Z,2.50
2019-05-16T02:15:42.147Z,2.20
2019-05-16T02:18:12.169Z,2.03
2019-05-16T02:20:41.993Z,2.30
2019-05-16T02:23:13.000Z,2.17
2019-05-16T02:25:42.831Z,3.17
2019-05-16T02:28:12.902Z,2.17
2019-05-16T02:30:43.006Z,2.00
2019-05-16T02:33:12.749Z,1.83
2019-05-16T02:35:42.625Z,2.20
2019-05-16T02:38:12.444Z,2.20
2019-05-16T02:40:42.345Z,2.60
2019-05-16T02:43:12.645Z,1.80
2019-05-16T02:45:42.860Z,1.60
2019-05-16T02:48:12.840Z,1.80
2019-05-16T02:50:42.851Z,2.40
2019-05-16T02:53:13.035Z,2.03
2019-05-16T02:55:43.158Z,1.90
2019-05-16T02:58:12.935Z,1.90
2019-05-16T03:00:43.158Z,2.13
2019-05-16T03:03:12.960Z,2.10
2019-05-16T03:05:43.279Z,2.37
2019-05-16T03:08:13.490Z,1.90
2019-05-16T03:10:43.658Z,2.17
2019-05-16T03:13:15.232Z,3.20
2019-05-16T03:15:50.818Z,2.37
2019-05-16T03:18:22.129Z,2.27
2019-05-16T03:20:54.898Z,2.30
2019-05-16T03:23:24.616Z,1.77
2019-05-16T03:25:54.347Z,2.20
2019-05-16T03:28:24.076Z,2.40
2019-05-16T03:30:55.056Z,2.17
2019-05-16T03:33:33.070Z,2.50
2019-05-16T03:35:56.718Z,3.20
2019-05-16T03:38:26.523Z,3.03
2019-05-16T03:40:56.568Z,2.30
2019-05-16T03:43:26.851Z,2.33
2019-05-16T03:45:56.606Z,2.47
2019-05-16T03:48:27.220Z,2.63
2019-05-16T03:51:00.633Z,2.67
2019-05-16T03:53:31.454Z,2.57
2019-05-16T03:56:01.890Z,3.07
2019-05-16T03:58:32.040Z,2.57
2019-05-16T04:01:02.688Z,2.27
2019-05-16T04:03:33.461Z,2.30
2019-05-16T04:06:03.428Z,2.80
2019-05-16T04:08:33.688Z,2.13
2019-05-16T04:11:03.572Z,2.27
2019-05-16T04:13:34.161Z,2.70
2019-05-16T04:16:03.996Z,2.63
2019-05-16T04:18:33.866Z,2.67
2019-05-16T04:21:03.691Z,2.20
2019-05-16T04:23:33.420Z,2.80
2019-05-16T04:26:03.279Z,2.40
2019-05-16T04:28:33.035Z,3.10
2019-05-16T04:31:03.165Z,3.70
2019-05-16T04:33:33.076Z,3.00
2019-05-16T04:36:03.194Z,3.10
2019-05-16T04:38:40.668Z,2.37
2019-05-16T04:41:05.281Z,2.63
2019-05-16T04:43:35.138Z,2.70
2019-05-16T04:46:05.057Z,2.70
2019-05-16T04:48:35.318Z,2.90
2019-05-16T04:51:05.140Z,2.90
2019-05-16T04:53:35.300Z,2.97
2019-05-16T04:56:05.118Z,2.47
2019-05-16T04:58:34.951Z,3.13
2019-05-16T05:01:04.770Z,2.70
2019-05-16T05:03:34.612Z,2.63
2019-05-16T05:06:04.489Z,2.50
2019-05-16T05:08:49.303Z,2.80
2019-05-16T05:11:05.729Z,2.73
2019-05-16T05:13:35.421Z,2.47
2019-05-16T05:16:06.035Z,2.90
2019-05-16T05:18:35.779Z,2.50
2019-05-16T05:21:05.895Z,2.37
2019-05-16T05:23:35.742Z,2.90
2019-05-16T05:26:06.075Z,3.20
2019-05-16T05:28:36.050Z,3.10
2019-05-16T05:31:05.854Z,2.63
2019-05-16T05:33:35.674Z,2.77
2019-05-16T05:36:05.642Z,3.80
2019-05-16T05:38:35.653Z,3.30
2019-05-16T05:41:06.003Z,3.20
2019-05-16T05:43:36.146Z,3.40
2019-05-16T05:46:06.266Z,3.00
2019-05-16T05:48:36.292Z,3.20
2019-05-16T05:51:06.419Z,3.10
2019-05-16T05:53:36.709Z,3.20
2019-05-16T05:56:06.785Z,3.47
2019-05-16T05:58:37.059Z,3.13
2019-05-16T06:01:10.862Z,3.30
2019-05-16T06:03:39.969Z,2.97
2019-05-16T06:06:10.538Z,2.93
2019-05-16T06:08:41.079Z,3.10
2019-05-16T06:11:10.991Z,2.97
2019-05-16T06:13:40.806Z,3.20
2019-05-16T06:16:11.015Z,3.90
2019-05-16T06:18:40.967Z,3.87
2019-05-16T06:21:11.590Z,3.70
2019-05-16T06:23:41.808Z,4.70
2019-05-16T06:26:12.420Z,3.50
2019-05-16T06:28:42.505Z,3.43
2019-05-16T06:31:14.387Z,3.27
2019-05-16T06:33:43.963Z,4.07
2019-05-16T06:36:13.824Z,3.30
2019-05-16T06:38:43.706Z,4.00
2019-05-16T06:41:13.538Z,4.47
2019-05-16T06:43:43.457Z,3.80
2019-05-16T06:46:13.305Z,3.70
2019-05-16T06:48:43.055Z,3.70
2019-05-16T06:51:12.959Z,4.13
2019-05-16T06:53:42.954Z,3.90
2019-05-16T06:56:13.351Z,3.60
2019-05-16T06:58:47.619Z,3.47
2019-05-16T07:01:15.319Z,3.87
2019-05-16T07:03:45.191Z,3.47
2019-05-16T07:06:37.826Z,3.97
2019-05-16T07:08:46.594Z,3.60
2019-05-16T07:11:16.499Z,4.40
2019-05-16T07:13:46.376Z,3.93
2019-05-16T07:16:35.556Z,4.03
2019-05-16T07:19:05.430Z,3.87
2019-05-16T07:21:35.151Z,3.47
2019-05-16T07:24:05.011Z,3.43
2019-05-16T07:26:35.082Z,3.67
2019-05-16T07:29:16.286Z,4.47
2019-05-16T07:31:46.118Z,3.70
2019-05-16T07:34:16.310Z,3.73
2019-05-16T07:36:46.500Z,3.60
2019-05-16T07:39:16.857Z,3.27
2019-05-16T07:41:46.850Z,3.43
2019-05-16T07:44:16.701Z,3.30
2019-05-16T07:46:46.463Z,2.90
2019-05-16T07:49:16.877Z,3.40
2019-05-16T07:51:49.860Z,3.70
2019-05-16T07:54:21.270Z,3.47
2019-05-16T07:56:58.551Z,3.80
2019-05-16T07:59:22.554Z,3.20
2019-05-16T08:01:54.151Z,3.10
2019-05-16T08:04:24.905Z,3.00
2019-05-16T08:06:55.240Z,3.90
2019-05-16T08:09:25.685Z,3.67
2019-05-16T08:11:55.767Z,3.60
2019-05-16T08:14:25.836Z,3.40
2019-05-16T08:16:55.993Z,3.30
2019-05-16T08:19:26.091Z,3.83
2019-05-16T08:21:55.845Z,2.87
2019-05-16T08:24:25.956Z,3.33
2019-05-16T08:26:56.122Z,3.17
2019-05-16T08:29:26.345Z,3.17
2019-05-16T08:31:56.429Z,6.73
2019-05-16T08:34:26.534Z,3.17
2019-05-16T08:36:56.565Z,3.00
2019-05-16T08:39:26.638Z,3.80
2019-05-16T08:42:04.310Z,5.00
2019-05-16T08:44:31.677Z,6.50
2019-05-16T08:47:06.219Z,3.33
2019-05-16T08:49:32.517Z,3.17
2019-05-16T08:52:02.903Z,2.93
2019-05-16T08:54:33.641Z,3.00
2019-05-16T08:57:21.729Z,2.93
2019-05-16T08:59:34.981Z,5.77
2019-05-16T09:02:04.811Z,4.20
2019-05-16T09:04:34.713Z,3.10
2019-05-16T09:07:04.566Z,4.10
2019-05-16T09:09:44.275Z,3.40
2019-05-16T09:12:07.863Z,3.17
2019-05-16T09:14:39.048Z,3.30
2019-05-16T09:17:09.134Z,3.50
2019-05-16T09:19:38.941Z,3.03
2019-05-16T09:22:08.802Z,3.50
2019-05-16T09:24:38.639Z,2.97
2019-05-16T09:27:12.081Z,3.27
2019-05-16T09:29:40.300Z,3.40
2019-05-16T09:32:16.923Z,3.40
2019-05-16T09:34:42.474Z,3.37
2019-05-16T09:37:12.311Z,3.60
2019-05-16T09:39:42.475Z,3.10
2019-05-16T09:42:12.510Z,3.27
2019-05-16T09:44:42.927Z,4.20
2019-05-16T09:47:13.092Z,3.30
2019-05-16T09:49:43.186Z,3.37
2019-05-16T09:52:13.663Z,4.07
2019-05-16T09:54:43.677Z,3.53
2019-05-16T09:57:13.749Z,19.50
2019-05-16T09:59:46.384Z,3.80
2019-05-16T10:02:17.603Z,4.37
2019-05-16T10:04:47.697Z,3.57
2019-05-16T10:07:18.139Z,9.90
2019-05-16T10:09:50.177Z,3.50
2019-05-16T10:12:19.983Z,7.20
2019-05-16T10:14:49.825Z,5.07
2019-05-16T10:17:20.243Z,3.77
2019-05-16T10:19:50.578Z,3.80
2019-05-16T10:22:20.935Z,3.70
2019-05-16T10:24:51.020Z,3.40
2019-05-16T10:27:20.831Z,3.70
2019-05-16T10:29:53.723Z,3.73
2019-05-16T10:32:23.546Z,3.40
2019-05-16T10:34:53.338Z,4.00
2019-05-16T10:37:23.163Z,3.57
2019-05-16T10:39:53.095Z,3.30
2019-05-16T10:42:28.462Z,5.00
2019-05-16T10:44:57.465Z,2.63
2019-05-16T10:47:31.023Z,3.43
2019-05-16T10:49:58.619Z,3.83
2019-05-16T10:52:28.768Z,3.30
2019-05-16T10:55:02.278Z,3.73
2019-05-16T10:57:30.486Z,3.73
2019-05-16T11:00:08.875Z,2.93
2019-05-16T11:02:32.592Z,3.90
2019-05-16T11:05:22.644Z,4.90
2019-05-16T11:07:36.903Z,3.63
2019-05-16T11:10:07.382Z,4.37
2019-05-16T11:12:47.490Z,4.10
2019-05-16T11:15:11.618Z,3.30
2019-05-16T11:17:42.354Z,3.80
2019-05-16T11:20:12.587Z,3.60
2019-05-16T11:22:42.501Z,3.87
2019-05-16T11:25:24.051Z,3.67
2019-05-16T11:27:46.714Z,3.70
2019-05-16T11:30:18.070Z,2.60
2019-05-16T11:32:48.514Z,3.13
2019-05-16T11:35:18.696Z,2.90
2019-05-16T11:37:48.573Z,2.70
2019-05-16T11:40:19.749Z,3.00
2019-05-16T11:43:05.551Z,3.20
2019-05-16T11:45:22.148Z,2.30
2019-05-16T11:47:51.989Z,1.90
2019-05-16T11:50:21.898Z,2.63
2019-05-16T11:52:52.566Z,2.03
2019-05-16T11:55:22.799Z,2.53
2019-05-16T11:57:53.135Z,2.43
2019-05-16T12:00:23.050Z,2.90
2019-05-16T12:02:53.068Z,2.27
2019-05-16T12:05:23.455Z,2.90
2019-05-16T12:08:12.447Z,3.80
2019-05-16T12:10:42.442Z,3.20
2019-05-16T12:13:27.238Z,4.50
2019-05-16T12:15:44.074Z,2.80
2019-05-16T12:18:13.951Z,3.20
2019-05-16T12:20:43.811Z,3.70
2019-05-16T12:23:13.560Z,2.90
2019-05-16T12:25:43.372Z,3.90
2019-05-16T12:28:13.495Z,2.70
2019-05-16T12:30:43.362Z,1.80
2019-05-16T12:33:14.887Z,2.87
2019-05-16T12:35:47.232Z,2.20
2019-05-16T12:38:17.063Z,3.23
2019-05-16T12:40:48.062Z,2.30
2019-05-16T12:43:18.308Z,2.40
2019-05-16T12:45:48.175Z,2.73
2019-05-16T12:48:20.482Z,2.60
2019-05-16T12:50:49.663Z,1.43
2019-05-16T12:53:23.530Z,2.60
2019-05-16T12:55:51.828Z,1.80
2019-05-16T12:58:26.083Z,2.50
2019-05-16T13:00:57.607Z,2.73
2019-05-16T13:03:27.730Z,2.90
2019-05-16T13:05:57.239Z,3.00
2019-05-16T13:08:27.250Z,2.40
2019-05-16T13:10:57.918Z,2.13
2019-05-16T13:13:28.168Z,2.57
2019-05-16T13:15:58.403Z,1.70
2019-05-16T13:18:28.146Z,2.20
2019-05-16T13:20:58.568Z,1.60
2019-05-16T13:23:28.899Z,2.13
2019-05-16T13:25:58.756Z,2.50
2019-05-16T13:28:28.554Z,2.60
2019-05-16T13:30:58.932Z,3.07
2019-05-16T13:33:28.965Z,3.10
2019-05-16T13:35:59.371Z,2.37
2019-05-16T13:38:29.712Z,2.80
2019-05-16T13:40:59.896Z,2.93
2019-05-16T13:43:30.553Z,2.30
2019-05-16T13:46:00.493Z,2.40
2019-05-16T13:48:30.770Z,2.60
2019-05-16T13:51:13.842Z,3.13
2019-05-16T13:53:33.006Z,2.60
2019-05-16T13:56:06.396Z,3.67
2019-05-16T13:58:37.312Z,2.80
2019-05-16T14:01:07.907Z,10.87
2019-05-16T14:03:38.123Z,3.00
2019-05-16T14:06:07.977Z,2.33
2019-05-16T14:08:37.807Z,1.77
2019-05-16T14:11:09.789Z,1.57
2019-05-16T14:13:39.990Z,2.33
2019-05-16T14:16:10.484Z,1.77
2019-05-16T14:18:40.563Z,2.20
2019-05-16T14:21:10.520Z,1.90
2019-05-16T14:23:40.409Z,1.67
2019-05-16T14:26:11.439Z,3.30
2019-05-16T14:28:44.463Z,2.20
2019-05-16T14:31:14.179Z,2.70
2019-05-16T14:33:44.273Z,1.43
2019-05-16T14:36:14.211Z,1.87
2019-05-16T14:38:46.815Z,1.60
2019-05-16T14:41:17.365Z,1.60
2019-05-16T14:43:47.498Z,2.57
2019-05-16T14:46:18.415Z,2.27
2019-05-16T14:48:48.394Z,1.63
2019-05-16T14:51:18.342Z,2.10
2019-05-16T14:53:48.794Z,2.30
2019-05-16T14:56:18.886Z,2.63
2019-05-16T14:58:48.923Z,2.20
2019-05-16T15:01:18.793Z,1.87
2019-05-16T15:03:48.612Z,3.83
2019-05-16T15:06:18.521Z,2.70
2019-05-16T15:08:48.361Z,2.20
2019-05-16T15:11:18.230Z,3.50
2019-05-16T15:13:48.380Z,1.80
2019-05-16T15:16:18.267Z,2.13
2019-05-16T15:18:48.254Z,2.20
2019-05-16T15:21:18.121Z,2.30
2019-05-16T15:23:48.008Z,2.13
2019-05-16T15:26:18.378Z,2.20
2019-05-16T15:28:51.164Z,5.60
2019-05-16T15:31:20.850Z,1.80
2019-05-16T15:33:51.414Z,2.30
2019-05-16T15:36:21.516Z,2.60
2019-05-16T15:38:51.370Z,2.37
2019-05-16T15:41:21.265Z,2.20
2019-05-16T15:43:51.470Z,1.83
2019-05-16T15:46:21.371Z,1.60
2019-05-16T15:48:51.334Z,1.63
2019-05-16T15:51:22.630Z,2.13
2019-05-16T15:53:53.225Z,2.73
2019-05-16T15:56:23.059Z,1.83
2019-05-16T15:58:52.952Z,2.30
2019-05-16T16:01:22.916Z,2.00
2019-05-16T16:03:53.082Z,1.70
2019-05-16T16:06:22.771Z,1.80
2019-05-16T16:08:53.631Z,1.50
2019-05-16T16:11:23.369Z,2.47
2019-05-16T16:13:53.190Z,2.70
2019-05-16T16:16:23.054Z,2.80
2019-05-16T16:18:52.861Z,2.70
2019-05-16T16:21:22.874Z,2.90
2019-05-16T16:23:53.000Z,2.73
2019-05-16T16:26:22.828Z,2.37
2019-05-16T16:28:52.653Z,3.17
2019-05-16T16:31:22.485Z,2.30
2019-05-16T16:33:52.819Z,2.17
2019-05-16T16:36:23.325Z,2.30
2019-05-16T16:38:53.194Z,2.70
2019-05-16T16:41:23.161Z,3.20
2019-05-16T16:43:53.515Z,2.30
2019-05-16T16:46:23.526Z,2.93
2019-05-16T16:48:56.322Z,3.23
2019-05-16T16:51:26.931Z,2.97
2019-05-16T16:53:57.738Z,2.70
2019-05-16T16:56:28.067Z,2.80
2019-05-16T16:58:57.827Z,3.17
2019-05-16T17:01:27.693Z,5.10
2019-05-16T17:03:58.360Z,2.50
2019-05-16T17:06:28.438Z,3.10
2019-05-16T17:08:58.803Z,3.33
2019-05-16T17:11:28.855Z,3.47
2019-05-16T17:13:58.727Z,2.73
2019-05-16T17:16:29.204Z,2.70
2019-05-16T17:18:59.489Z,3.73
2019-05-16T17:21:29.272Z,3.10
2019-05-16T17:23:59.413Z,2.90
2019-05-16T17:26:29.171Z,3.10
2019-05-16T17:28:59.435Z,2.90
2019-05-16T17:31:29.524Z,3.10
2019-05-16T17:33:59.529Z,3.87
2019-05-16T17:36:30.216Z,4.00
2019-05-16T17:39:00.042Z,3.87
2019-05-16T17:41:30.150Z,4.10
2019-05-16T17:44:00.600Z,3.40
2019-05-16T17:46:36.838Z,3.70
2019-05-16T17:49:02.990Z,2.93
2019-05-16T17:51:33.313Z,3.87
2019-05-16T17:54:03.150Z,3.20
2019-05-16T17:56:32.885Z,3.67
2019-05-16T17:59:02.891Z,2.90
2019-05-16T18:01:32.702Z,3.13
2019-05-16T18:04:02.803Z,3.33
2019-05-16T18:06:32.646Z,2.80
2019-05-16T18:09:06.459Z,4.13
2019-05-16T18:11:37.432Z,3.40
2019-05-16T18:14:07.869Z,3.90
2019-05-16T18:16:52.095Z,3.53
2019-05-16T18:19:09.333Z,4.03
2019-05-16T18:21:39.795Z,4.17
2019-05-16T18:24:09.888Z,2.90
2019-05-16T18:26:40.451Z,2.90
2019-05-16T18:29:10.591Z,3.67
2019-05-16T18:31:40.999Z,3.57
2019-05-16T18:34:11.865Z,3.17
2019-05-16T18:36:41.909Z,3.50
2019-05-16T18:39:11.990Z,7.03
2019-05-16T18:41:41.846Z,3.60
2019-05-16T18:44:12.250Z,3.50
2019-05-16T18:46:42.308Z,3.53
2019-05-16T18:49:12.148Z,4.07
2019-05-16T18:51:42.478Z,4.17
2019-05-16T18:54:12.306Z,3.03
2019-05-16T18:56:42.381Z,3.30
2019-05-16T18:59:12.204Z,4.40
2019-05-16T19:01:42.534Z,3.30
2019-05-16T19:04:13.413Z,3.57
2019-05-16T19:06:43.378Z,3.67
2019-05-16T19:09:13.465Z,3.27
2019-05-16T19:11:43.284Z,3.07
2019-05-16T19:14:13.122Z,3.47
2019-05-16T19:16:43.190Z,3.00
2019-05-16T19:19:12.978Z,2.97
2019-05-16T19:21:42.837Z,2.97
2019-05-16T19:24:13.307Z,2.90
2019-05-16T19:26:43.005Z,3.27
2019-05-16T19:29:12.820Z,2.63
2019-05-16T19:31:43.257Z,3.97
2019-05-16T19:34:13.581Z,3.73
2019-05-16T19:36:43.665Z,3.80
2019-05-16T19:39:13.636Z,4.60
2019-05-16T19:41:43.468Z,4.60
2019-05-16T19:44:13.277Z,3.80
2019-05-16T19:46:43.060Z,3.70
2019-05-16T19:49:16.490Z,3.43
2019-05-16T19:51:49.077Z,4.07
2019-05-16T19:54:19.132Z,4.23
2019-05-16T19:56:49.148Z,4.43
2019-05-16T19:59:19.619Z,4.13
2019-05-16T20:01:49.371Z,4.30
2019-05-16T20:04:19.415Z,4.40
2019-05-16T20:06:49.161Z,3.70
2019-05-16T20:09:19.803Z,3.50
2019-05-16T20:11:49.875Z,4.13
2019-05-16T20:14:19.831Z,3.90
2019-05-16T20:16:50.131Z,4.30
2019-05-16T20:19:20.450Z,4.13
2019-05-16T20:21:50.276Z,4.90
2019-05-16T20:24:20.087Z,5.10
2019-05-16T20:26:49.950Z,4.80
2019-05-16T20:29:19.776Z,4.40
2019-05-16T20:31:50.170Z,3.80
2019-05-16T20:34:20.572Z,4.20
2019-05-16T20:36:51.259Z,3.40
2019-05-16T20:39:21.590Z,3.37
2019-05-16T20:41:51.454Z,4.10
2019-05-16T20:44:21.275Z,3.90
2019-05-16T20:46:51.094Z,4.03
2019-05-16T20:49:20.844Z,4.33
2019-05-16T20:51:50.606Z,4.57
2019-05-16T20:54:20.423Z,4.17
2019-05-16T20:56:50.560Z,4.43
2019-05-16T20:59:20.547Z,5.43
2019-05-16T21:01:50.371Z,4.20
2019-05-16T21:04:20.351Z,4.43
2019-05-16T21:07:00.191Z,4.03
2019-05-16T21:09:22.416Z,4.77
2019-05-16T21:11:53.086Z,4.30
2019-05-16T21:14:23.097Z,4.80
2019-05-16T21:16:53.167Z,4.43
2019-05-16T21:19:22.890Z,5.20
2019-05-16T21:21:52.631Z,5.07
2019-05-16T21:24:22.377Z,5.40
2019-05-16T21:26:52.270Z,5.17
2019-05-16T21:29:22.285Z,4.57
2019-05-16T21:31:52.826Z,5.30
2019-05-16T21:34:23.126Z,5.23
2019-05-16T21:36:52.786Z,4.83
2019-05-16T21:39:23.102Z,5.13
2019-05-16T21:41:52.844Z,5.60
2019-05-16T21:44:22.654Z,4.90
2019-05-16T21:46:53.542Z,5.70
2019-05-16T21:49:23.767Z,5.50
2019-05-16T21:51:54.115Z,6.33
2019-05-16T21:54:23.838Z,5.63
2019-05-16T21:56:53.842Z,6.10
2019-05-16T21:59:23.585Z,6.33
2019-05-16T22:01:53.412Z,6.73
2019-05-16T22:04:23.210Z,5.63
2019-05-16T22:06:53.046Z,6.20
2019-05-16T22:09:22.783Z,6.03
2019-05-16T22:11:52.705Z,5.90
2019-05-16T22:14:27.597Z,7.30
2019-05-16T22:16:57.502Z,6.57
2019-05-16T22:19:27.336Z,6.97
2019-05-16T22:21:58.512Z,11.13
2019-05-16T22:24:28.409Z,18.70
2019-05-16T22:26:58.162Z,7.23
2019-05-16T22:29:28.042Z,7.47
2019-05-16T22:31:57.947Z,9.60
2019-05-16T22:34:27.752Z,6.77
2019-05-16T22:36:57.469Z,10.47
2019-05-16T22:39:27.686Z,7.73
2019-05-16T22:41:57.490Z,8.53
2019-05-16T22:44:27.562Z,8.03
2019-05-16T22:46:57.619Z,8.50
2019-05-16T22:49:27.632Z,8.33
2019-05-16T22:51:58.506Z,8.20
2019-05-16T22:54:28.403Z,9.27
2019-05-16T22:56:58.395Z,8.20
2019-05-16T22:59:28.211Z,9.07
2019-05-16T23:01:58.031Z,8.00
2019-05-16T23:04:28.103Z,8.53
2019-05-16T23:06:58.174Z,8.47
2019-05-16T23:09:28.187Z,8.50
2019-05-16T23:11:58.171Z,8.50
2019-05-16T23:14:27.998Z,8.47
2019-05-16T23:16:57.987Z,8.93
2019-05-16T23:19:28.058Z,8.57
2019-05-16T23:21:58.378Z,8.10
2019-05-16T23:24:28.194Z,8.47
2019-05-16T23:26:57.850Z,8.80
2019-05-16T23:29:27.951Z,8.40
2019-05-16T23:31:57.750Z,8.77
2019-05-16T23:34:27.640Z,8.30
2019-05-16T23:36:57.521Z,8.13
2019-05-16T23:39:27.352Z,9.47
2019-05-16T23:41:57.235Z,8.60
2019-05-16T23:44:27.357Z,9.80
2019-05-16T23:46:57.439Z,9.47
2019-05-16T23:49:27.603Z,8.10
2019-05-16T23:51:57.380Z,8.00
2019-05-16T23:54:27.910Z,9.57
2019-05-16T23:56:58.383Z,8.30
2019-05-16T23:59:28.230Z,9.27
